Time;durP1;ratioP1;P1;durP2;ratioP2;P2;SDS_P1;SDS_P2;PMS_P1;PMS_P2;Temp;Humidity;BMP_temperature;BMP_pressure;BME280_temperature;BME280_humidity;BME280_pressure;Samples;Min_cycle;Max_cycle;Signal;HPM_P1;HPM_P2
2023/10/21 00:00:08;;;;;;;9.40;3.67;;;6.00;99.90;;;;;;5054498;28;20178;-53
2023/10/21 00:02:34;;;;;;;6.63;4.00;;;6.00;99.90;;;;;;5054488;28;20250;-53
2023/10/21 00:04:59;;;;;;;8.23;4.33;;;6.00;99.90;;;;;;5054265;28;20187;-53
2023/10/21 00:07:25;;;;;;;6.27;4.03;;;6.00;99.90;;;;;;5054600;28;20185;-52
2023/10/21 00:09:51;;;;;;;4.33;3.90;;;6.00;99.90;;;;;;5054506;28;20182;-53
2023/10/21 00:12:16;;;;;;;5.97;4.40;;;6.00;99.90;;;;;;5054447;28;20413;-53
2023/10/21 00:14:42;;;;;;;5.40;4.00;;;6.00;99.90;;;;;;5054061;28;20182;-53
2023/10/21 00:17:07;;;;;;;7.60;4.97;;;6.00;99.90;;;;;;5054082;28;20184;-53
2023/10/21 00:19:34;;;;;;;8.73;4.70;;;6.00;99.90;;;;;;5054332;28;20183;-53
2023/10/21 00:22:00;;;;;;;10.27;5.50;;;6.00;99.90;;;;;;5053921;28;20274;-53
2023/10/21 00:24:25;;;;;;;10.80;5.10;;;6.00;99.90;;;;;;5054207;28;20541;-53
2023/10/21 00:26:51;;;;;;;9.30;5.50;;;6.10;99.90;;;;;;5054435;28;20193;-52
2023/10/21 00:29:17;;;;;;;10.30;5.30;;;6.10;99.90;;;;;;5054053;28;20530;-53
2023/10/21 00:31:45;;;;;;;11.47;5.13;;;6.10;99.90;;;;;;5053934;28;20182;-53
2023/10/21 00:34:11;;;;;;;7.10;4.80;;;6.10;99.90;;;;;;5054130;28;20414;-53
2023/10/21 00:36:37;;;;;;;8.60;5.13;;;6.10;99.90;;;;;;5052760;28;20419;-52
2023/10/21 00:39:03;;;;;;;12.37;6.20;;;6.20;99.90;;;;;;5054003;28;20234;-53
2023/10/21 00:41:29;;;;;;;11.00;5.53;;;6.20;99.90;;;;;;5053891;28;20572;-53
2023/10/21 00:43:54;;;;;;;9.53;4.90;;;6.20;99.90;;;;;;5054152;28;20523;-53
2023/10/21 00:46:22;;;;;;;9.30;6.03;;;6.20;99.90;;;;;;5053958;28;20276;-53
2023/10/21 00:48:49;;;;;;;10.17;6.10;;;6.10;99.90;;;;;;5053714;28;20705;-52
2023/10/21 00:51:15;;;;;;;14.20;6.40;;;6.10;99.90;;;;;;5053456;28;20972;-53
2023/10/21 00:53:41;;;;;;;10.67;5.70;;;6.10;99.90;;;;;;5053367;28;20431;-52
2023/10/21 00:56:08;;;;;;;11.47;6.43;;;6.20;99.90;;;;;;5053814;28;20417;-53
2023/10/21 00:58:35;;;;;;;9.53;6.13;;;6.20;99.90;;;;;;5053493;28;20951;-53
2023/10/21 01:01:02;;;;;;;12.33;6.63;;;6.20;99.90;;;;;;5053735;28;20416;-53
2023/10/21 01:03:29;;;;;;;11.20;6.50;;;6.20;99.90;;;;;;5053951;28;20465;-52
2023/10/21 01:05:55;;;;;;;11.47;6.17;;;6.20;99.90;;;;;;5053480;28;20939;-53
2023/10/21 01:08:21;;;;;;;10.53;6.77;;;6.20;99.90;;;;;;5053173;28;20415;-53
2023/10/21 01:10:47;;;;;;;14.37;7.30;;;6.20;99.90;;;;;;5053314;28;20178;-52
2023/10/21 01:13:12;;;;;;;11.40;7.10;;;6.20;99.90;;;;;;5053613;28;20632;-53
2023/10/21 01:15:38;;;;;;;10.90;7.07;;;6.20;99.90;;;;;;5053639;28;20232;-52
2023/10/21 01:18:06;;;;;;;13.53;6.80;;;6.20;99.90;;;;;;5053072;28;20188;-53
2023/10/21 01:20:32;;;;;;;14.33;7.00;;;6.30;99.90;;;;;;5053732;28;20279;-53
2023/10/21 01:22:57;;;;;;;13.83;6.87;;;6.30;99.90;;;;;;5053463;28;20540;-52
2023/10/21 01:25:24;;;;;;;14.27;7.70;;;6.30;99.90;;;;;;5053435;28;20653;-53
2023/10/21 01:27:56;;;;;;;15.23;8.00;;;6.30;99.90;;;;;;5053187;28;20181;-53
2023/10/21 01:30:22;;;;;;;13.87;7.60;;;6.30;99.90;;;;;;5053405;28;20423;-53
2023/10/21 01:32:48;;;;;;;13.87;7.87;;;6.40;99.90;;;;;;5053415;28;20412;-52
2023/10/21 01:35:15;;;;;;;13.37;7.17;;;6.40;99.90;;;;;;5052888;28;20812;-53
2023/10/21 01:37:40;;;;;;;16.03;8.20;;;6.40;99.90;;;;;;5052945;28;20240;-53
2023/10/21 01:40:09;;;;;;;16.00;8.20;;;6.30;99.90;;;;;;5053336;28;20422;-53
2023/10/21 01:42:36;;;;;;;17.70;9.17;;;6.30;99.90;;;;;;5053105;28;20606;-53
2023/10/21 01:45:02;;;;;;;19.40;9.27;;;6.30;99.90;;;;;;5053417;28;20513;-53
2023/10/21 01:47:29;;;;;;;20.80;9.80;;;6.30;99.90;;;;;;5053255;28;20481;-53
2023/10/21 01:49:55;;;;;;;20.97;10.23;;;6.30;99.90;;;;;;5057389;28;20529;-53
2023/10/21 01:52:21;;;;;;;16.43;9.20;;;6.40;99.90;;;;;;5056897;28;20479;-53
2023/10/21 01:54:46;;;;;;;16.50;9.63;;;6.40;99.90;;;;;;5056977;28;20184;-53
2023/10/21 01:57:12;;;;;;;19.03;9.57;;;6.40;99.90;;;;;;5056774;28;20180;-52
2023/10/21 01:59:41;;;;;;;19.50;9.20;;;6.40;99.90;;;;;;5056973;28;20183;-53
2023/10/21 02:02:07;;;;;;;25.70;11.30;;;6.40;99.90;;;;;;5057089;28;20210;-53
2023/10/21 02:04:33;;;;;;;20.33;9.40;;;6.40;99.90;;;;;;5056710;28;20944;-53
2023/10/21 02:06:59;;;;;;;19.47;9.60;;;6.40;99.90;;;;;;5056609;28;20459;-53
2023/10/21 02:09:24;;;;;;;21.27;11.00;;;6.40;99.90;;;;;;5056655;28;20182;-53
2023/10/21 02:11:55;;;;;;;23.17;11.27;;;6.40;99.90;;;;;;5056894;28;20630;-53
2023/10/21 02:14:22;;;;;;;21.27;9.83;;;6.40;99.90;;;;;;5056489;28;20166;-53
2023/10/21 02:16:52;;;;;;;21.43;10.13;;;6.40;99.90;;;;;;5056259;28;20420;-53
2023/10/21 02:19:21;;;;;;;25.67;11.10;;;6.50;99.90;;;;;;5057002;28;20412;-53
2023/10/21 02:21:47;;;;;;;21.73;10.83;;;6.50;99.90;;;;;;5056373;28;20447;-53
2023/10/21 02:24:12;;;;;;;19.03;9.77;;;6.50;99.90;;;;;;5056972;28;20454;-53
2023/10/21 02:26:38;;;;;;;21.37;11.30;;;6.60;99.90;;;;;;5056531;28;20844;-53
2023/10/21 02:29:04;;;;;;;21.67;10.17;;;6.50;99.90;;;;;;5056420;28;20233;-53
2023/10/21 02:31:30;;;;;;;31.60;11.37;;;6.60;99.90;;;;;;5056145;28;20185;-53
2023/10/21 02:33:55;;;;;;;20.70;10.57;;;6.60;99.90;;;;;;5056226;28;20196;-53
2023/10/21 02:36:21;;;;;;;24.20;11.23;;;6.60;99.90;;;;;;5056622;28;20478;-53
2023/10/21 02:38:47;;;;;;;26.57;10.80;;;6.60;99.90;;;;;;5056116;28;20604;-53
2023/10/21 02:41:13;;;;;;;23.53;10.47;;;6.60;99.90;;;;;;5056203;28;20186;-54
2023/10/21 02:43:39;;;;;;;19.63;10.97;;;6.60;99.90;;;;;;5056018;28;20987;-53
2023/10/21 02:46:12;;;;;;;22.83;11.40;;;6.60;99.90;;;;;;5056405;28;20423;-53
2023/10/21 02:48:38;;;;;;;28.20;10.70;;;6.60;99.90;;;;;;5055831;28;20167;-53
2023/10/21 02:51:14;;;;;;;22.83;10.93;;;6.60;99.90;;;;;;5055763;28;20557;-53
2023/10/21 02:53:41;;;;;;;30.27;12.53;;;6.60;99.90;;;;;;5055911;28;20408;-53
2023/10/21 02:56:07;;;;;;;33.20;12.43;;;6.60;99.90;;;;;;5056036;28;20409;-52
2023/10/21 02:58:34;;;;;;;37.43;12.10;;;6.60;99.90;;;;;;5055986;28;20424;-53
2023/10/21 03:01:18;;;;;;;37.87;13.40;;;6.70;99.90;;;;;;5054952;28;20406;-53
2023/10/21 03:03:45;;;;;;;26.37;12.67;;;6.70;99.90;;;;;;5055979;28;20468;-53
2023/10/21 03:06:12;;;;;;;36.60;14.87;;;6.70;99.90;;;;;;5055126;28;20824;-53
2023/10/21 03:08:38;;;;;;;34.60;14.73;;;6.70;99.90;;;;;;5055431;28;20925;-53
2023/10/21 03:11:05;;;;;;;28.10;13.40;;;6.80;99.90;;;;;;5055323;28;20421;-53
2023/10/21 03:13:31;;;;;;;33.63;15.53;;;6.80;99.90;;;;;;5055413;28;20180;-53
2023/10/21 03:15:57;;;;;;;39.73;13.97;;;6.80;99.90;;;;;;5055163;28;20436;-53
2023/10/21 03:18:23;;;;;;;40.83;14.40;;;6.80;99.90;;;;;;5055595;28;20420;-52
2023/10/21 03:20:52;;;;;;;30.07;13.90;;;6.80;99.90;;;;;;5055322;28;20174;-53
2023/10/21 03:23:18;;;;;;;32.63;13.50;;;6.80;99.90;;;;;;5055072;28;20208;-53
2023/10/21 03:25:56;;;;;;;28.80;13.50;;;6.80;99.90;;;;;;5055350;28;20422;-53
2023/10/21 03:28:23;;;;;;;29.87;12.73;;;6.90;99.90;;;;;;5055247;28;20883;-53
2023/10/21 03:30:49;;;;;;;35.13;13.10;;;6.90;99.90;;;;;;5055498;28;20416;-53
2023/10/21 03:33:16;;;;;;;31.83;13.13;;;6.90;99.90;;;;;;5055160;28;20498;-53
2023/10/21 03:35:52;;;;;;;28.90;14.03;;;6.90;99.90;;;;;;5055246;28;20426;-53
2023/10/21 03:38:18;;;;;;;39.73;13.83;;;6.80;99.90;;;;;;5055524;28;20456;-52
2023/10/21 03:40:43;;;;;;;35.03;13.33;;;6.80;99.90;;;;;;5055131;28;20449;-52
2023/10/21 03:43:09;;;;;;;37.57;14.03;;;6.80;99.90;;;;;;5054994;28;20495;-52
2023/10/21 03:45:36;;;;;;;36.57;14.20;;;6.80;99.90;;;;;;5055502;28;20189;-53
2023/10/21 03:48:03;;;;;;;33.93;12.73;;;6.90;99.90;;;;;;5054911;28;20179;-52
2023/10/21 03:50:29;;;;;;;47.23;13.20;;;6.80;99.90;;;;;;5054952;28;20479;-53
2023/10/21 03:52:55;;;;;;;34.57;13.83;;;6.80;99.90;;;;;;5054786;28;20440;-53
2023/10/21 03:55:21;;;;;;;50.03;13.47;;;6.90;99.90;;;;;;5054766;28;20475;-53
2023/10/21 03:57:49;;;;;;;35.97;13.17;;;6.90;99.90;;;;;;5054344;28;20813;-53
2023/10/21 04:00:15;;;;;;;47.23;14.10;;;6.90;99.90;;;;;;5054632;28;20324;-52
2023/10/21 04:02:40;;;;;;;39.47;15.00;;;6.90;99.90;;;;;;5054992;28;20765;-53
2023/10/21 04:05:08;;;;;;;39.50;14.50;;;6.90;99.90;;;;;;5054953;28;20484;-52
2023/10/21 04:07:36;;;;;;;28.57;13.57;;;6.90;99.90;;;;;;5054654;28;20274;-53
2023/10/21 04:10:02;;;;;;;36.50;14.50;;;7.00;99.90;;;;;;5054238;28;20886;-52
2023/10/21 04:12:29;;;;;;;32.40;13.50;;;7.00;99.90;;;;;;5054418;28;20474;-52
2023/10/21 04:14:54;;;;;;;31.63;14.17;;;7.00;99.90;;;;;;5054197;28;20188;-52
2023/10/21 04:17:21;;;;;;;35.13;14.57;;;7.00;99.90;;;;;;5054567;28;20435;-52
2023/10/21 04:19:46;;;;;;;36.23;13.30;;;7.00;99.90;;;;;;5054462;28;20200;-52
2023/10/21 04:22:12;;;;;;;36.80;13.67;;;7.00;99.90;;;;;;5054227;28;20502;-52
2023/10/21 04:24:37;;;;;;;32.07;14.17;;;7.00;99.90;;;;;;5054004;28;20209;-52
2023/10/21 04:27:03;;;;;;;38.40;13.37;;;7.00;99.90;;;;;;5054177;28;20190;-52
2023/10/21 04:29:32;;;;;;;37.17;14.93;;;7.00;99.90;;;;;;5054484;28;20268;-52
2023/10/21 04:31:58;;;;;;;41.87;14.30;;;7.00;99.90;;;;;;5053917;28;20427;-52
2023/10/21 04:34:25;;;;;;;32.87;13.17;;;7.00;99.90;;;;;;5054044;28;20428;-52
2023/10/21 04:36:50;;;;;;;32.80;13.53;;;7.10;99.90;;;;;;5054031;28;20454;-52
2023/10/21 04:39:16;;;;;;;36.00;14.17;;;7.10;99.90;;;;;;5054054;28;20419;-53
2023/10/21 04:41:42;;;;;;;35.17;13.83;;;7.10;99.90;;;;;;5053789;28;20196;-52
2023/10/21 04:44:09;;;;;;;28.90;13.00;;;7.10;99.90;;;;;;5054031;28;20224;-52
2023/10/21 04:46:34;;;;;;;31.60;12.90;;;7.10;99.90;;;;;;5053708;28;20868;-52
2023/10/21 04:49:00;;;;;;;42.30;12.37;;;7.10;99.90;;;;;;5053985;28;20442;-52
2023/10/21 04:51:25;;;;;;;32.10;13.10;;;7.10;99.90;;;;;;5054020;28;20232;-53
2023/10/21 04:53:51;;;;;;;46.57;15.00;;;7.20;99.90;;;;;;5053694;28;20264;-53
2023/10/21 04:56:17;;;;;;;48.33;19.07;;;7.10;99.90;;;;;;5053948;28;20181;-52
2023/10/21 04:58:42;;;;;;;37.80;14.40;;;7.10;99.90;;;;;;5053330;28;20196;-52
2023/10/21 05:01:10;;;;;;;27.77;13.63;;;7.00;99.90;;;;;;5053150;28;20506;-52
2023/10/21 05:03:36;;;;;;;31.30;13.47;;;7.00;99.90;;;;;;5053923;28;20241;-52
2023/10/21 05:06:04;;;;;;;40.33;13.90;;;7.10;99.90;;;;;;5053492;28;20430;-52
2023/10/21 05:08:30;;;;;;;30.67;13.87;;;7.10;99.90;;;;;;5053594;28;20428;-52
2023/10/21 05:10:56;;;;;;;47.67;13.67;;;7.10;99.90;;;;;;5053744;28;20819;-52
2023/10/21 05:13:21;;;;;;;31.37;13.63;;;7.10;99.90;;;;;;5053706;28;20452;-53
2023/10/21 05:15:47;;;;;;;39.47;15.37;;;7.10;99.90;;;;;;5053376;28;20706;-52
2023/10/21 05:18:12;;;;;;;38.93;14.80;;;7.10;99.90;;;;;;5053052;28;20186;-53
2023/10/21 05:20:38;;;;;;;36.90;14.40;;;7.10;99.90;;;;;;5053379;28;20221;-53
2023/10/21 05:23:03;;;;;;;39.83;14.70;;;7.20;99.90;;;;;;5054406;28;20189;-53
2023/10/21 05:25:29;;;;;;;57.43;14.57;;;7.20;99.90;;;;;;5057546;28;20178;-52
2023/10/21 05:27:54;;;;;;;37.90;14.53;;;7.10;99.90;;;;;;5057831;28;20176;-52
2023/10/21 05:30:20;;;;;;;31.23;13.93;;;7.20;99.90;;;;;;5057642;28;20189;-52
2023/10/21 05:32:45;;;;;;;43.17;14.87;;;7.20;99.90;;;;;;5057361;28;20276;-52
2023/10/21 05:35:11;;;;;;;42.77;15.10;;;7.20;99.90;;;;;;5057171;28;20273;-52
2023/10/21 05:37:36;;;;;;;30.17;13.77;;;7.20;99.90;;;;;;5057360;28;20181;-52
2023/10/21 05:40:05;;;;;;;29.27;13.40;;;7.20;99.90;;;;;;5057260;28;20704;-52
2023/10/21 05:42:31;;;;;;;36.83;13.83;;;7.20;99.90;;;;;;5057282;28;20201;-53
2023/10/21 05:44:57;;;;;;;31.77;13.93;;;7.20;99.90;;;;;;5057247;28;20458;-53
2023/10/21 05:47:23;;;;;;;42.20;15.77;;;7.20;99.90;;;;;;5057272;28;20510;-53
2023/10/21 05:49:48;;;;;;;34.27;13.93;;;7.20;99.90;;;;;;5056940;28;20890;-52
2023/10/21 05:52:17;;;;;;;33.57;14.07;;;7.20;99.90;;;;;;5056526;28;20248;-52
2023/10/21 05:54:42;;;;;;;31.90;14.23;;;7.30;99.90;;;;;;5056908;28;20544;-52
2023/10/21 05:57:08;;;;;;;38.50;14.10;;;7.30;99.90;;;;;;5057335;28;20495;-53
2023/10/21 05:59:34;;;;;;;44.27;14.67;;;7.30;99.90;;;;;;5056922;28;20205;-54
2023/10/21 06:02:00;;;;;;;40.07;16.00;;;7.30;99.90;;;;;;5056837;28;20941;-54
2023/10/21 06:04:25;;;;;;;29.10;14.80;;;7.30;99.90;;;;;;5056691;28;20642;-53
2023/10/21 06:06:54;;;;;;;41.47;15.60;;;7.30;99.90;;;;;;5056462;28;20417;-52
2023/10/21 06:09:22;;;;;;;31.47;14.10;;;7.30;99.90;;;;;;5056787;28;20256;-51
2023/10/21 06:11:47;;;;;;;43.47;14.97;;;7.30;99.90;;;;;;5056764;28;20412;-53
2023/10/21 06:14:13;;;;;;;44.30;14.77;;;7.30;99.90;;;;;;5056193;28;20549;-53
2023/10/21 06:16:38;;;;;;;46.97;15.07;;;7.40;99.90;;;;;;5056279;28;20216;-53
2023/10/21 06:19:04;;;;;;;45.83;16.10;;;7.40;99.90;;;;;;5056484;28;20186;-53
2023/10/21 06:21:30;;;;;;;32.47;15.03;;;7.40;99.90;;;;;;5056677;28;20208;-53
2023/10/21 06:23:55;;;;;;;31.33;14.30;;;7.40;99.90;;;;;;5056261;28;20499;-53
2023/10/21 06:26:21;;;;;;;36.13;13.10;;;7.40;99.90;;;;;;5056463;28;20229;-53
2023/10/21 06:28:47;;;;;;;26.97;12.40;;;7.40;99.90;;;;;;5056298;28;20264;-53
2023/10/21 06:31:12;;;;;;;33.80;14.33;;;7.40;99.90;;;;;;5056622;28;20331;-54
2023/10/21 06:33:38;;;;;;;26.73;12.30;;;7.40;99.90;;;;;;5056138;28;20194;-53
2023/10/21 06:36:04;;;;;;;34.33;14.60;;;7.40;99.90;;;;;;5055778;28;20180;-53
2023/10/21 06:38:30;;;;;;;28.87;13.50;;;7.40;99.90;;;;;;5055872;28;20701;-54
2023/10/21 06:40:56;;;;;;;30.93;13.87;;;7.50;99.90;;;;;;5055917;28;20593;-54
2023/10/21 06:43:23;;;;;;;27.13;13.40;;;7.50;99.90;;;;;;5056203;28;20464;-53
2023/10/21 06:45:49;;;;;;;32.10;14.70;;;7.60;99.90;;;;;;5056606;28;20423;-53
2023/10/21 06:48:15;;;;;;;39.93;14.30;;;7.60;99.90;;;;;;5055957;28;20419;-53
2023/10/21 06:50:40;;;;;;;28.23;14.30;;;7.60;99.90;;;;;;5054318;28;20518;-53
2023/10/21 06:53:06;;;;;;;32.60;16.07;;;7.60;99.90;;;;;;5052686;28;20193;-53
2023/10/21 06:55:42;;;;;;;34.73;13.83;;;7.60;99.90;;;;;;5052042;28;20190;-53
2023/10/21 06:58:08;;;;;;;30.63;13.50;;;7.60;99.90;;;;;;5051699;28;20215;-53
2023/10/21 07:00:33;;;;;;;32.30;14.53;;;7.60;99.90;;;;;;5053292;28;20487;-53
2023/10/21 07:02:59;;;;;;;31.17;14.70;;;7.70;99.90;;;;;;5055840;28;20237;-53
2023/10/21 07:05:24;;;;;;;28.13;14.50;;;7.70;99.90;;;;;;5056034;28;20195;-52
2023/10/21 07:07:50;;;;;;;30.00;14.23;;;7.70;99.90;;;;;;5055378;28;20187;-53
2023/10/21 07:10:16;;;;;;;29.93;15.50;;;7.70;99.90;;;;;;5055674;28;20220;-53
2023/10/21 07:12:41;;;;;;;38.97;14.87;;;7.70;99.90;;;;;;5055396;28;20176;-54
2023/10/21 07:15:09;;;;;;;32.20;14.50;;;7.70;99.90;;;;;;5055485;28;20247;-51
2023/10/21 07:17:36;;;;;;;32.73;15.23;;;7.70;99.90;;;;;;5055643;28;20186;-51
2023/10/21 07:20:05;;;;;;;26.97;13.80;;;7.70;99.90;;;;;;5055383;28;20410;-51
2023/10/21 07:22:30;;;;;;;24.70;12.80;;;7.70;99.90;;;;;;5055090;28;20420;-50
2023/10/21 07:24:57;;;;;;;31.60;14.63;;;7.80;99.90;;;;;;5055450;28;20507;-51
2023/10/21 07:27:24;;;;;;;24.10;13.37;;;7.80;99.90;;;;;;5055704;28;20535;-53
2023/10/21 07:29:49;;;;;;;29.00;13.67;;;7.90;99.90;;;;;;5055342;28;20423;-50
2023/10/21 07:32:15;;;;;;;27.33;12.90;;;7.80;99.90;;;;;;5055223;28;20411;-50
2023/10/21 07:34:42;;;;;;;24.03;13.20;;;7.90;99.90;;;;;;5054846;28;20550;-50
2023/10/21 07:37:07;;;;;;;23.67;12.10;;;7.80;99.90;;;;;;5055136;28;20422;-51
2023/10/21 07:39:33;;;;;;;27.03;13.90;;;7.80;99.90;;;;;;5054480;28;20419;-51
2023/10/21 07:41:59;;;;;;;19.63;11.87;;;7.80;99.90;;;;;;5054597;28;20689;-51
2023/10/21 07:44:28;;;;;;;27.43;13.43;;;7.90;99.90;;;;;;5054667;28;20468;-50
2023/10/21 07:46:54;;;;;;;23.40;12.23;;;7.90;99.90;;;;;;5054584;28;20590;-51
2023/10/21 07:49:20;;;;;;;22.07;11.97;;;7.90;99.90;;;;;;5055157;28;20422;-51
2023/10/21 07:51:45;;;;;;;22.27;12.27;;;7.90;99.90;;;;;;5054263;28;20499;-50
2023/10/21 07:54:12;;;;;;;24.67;11.27;;;8.00;99.90;;;;;;5054721;28;20209;-50
2023/10/21 07:56:37;;;;;;;22.33;11.93;;;8.00;99.90;;;;;;5054466;28;20197;-50
2023/10/21 07:59:03;;;;;;;20.87;11.70;;;8.00;99.90;;;;;;5054593;28;20884;-50
2023/10/21 08:01:28;;;;;;;22.33;12.23;;;8.10;99.90;;;;;;5054795;28;20183;-51
2023/10/21 08:03:54;;;;;;;23.30;12.00;;;8.10;99.90;;;;;;5054596;28;20228;-52
2023/10/21 08:06:20;;;;;;;21.67;11.30;;;8.20;99.90;;;;;;5054609;28;20535;-52
2023/10/21 08:08:45;;;;;;;20.47;11.13;;;8.20;99.90;;;;;;5053918;28;20186;-52
2023/10/21 08:11:11;;;;;;;18.47;11.17;;;8.30;99.90;;;;;;5054346;28;20182;-52
2023/10/21 08:13:37;;;;;;;14.70;9.53;;;8.30;99.90;;;;;;5054562;28;20604;-51
2023/10/21 08:16:04;;;;;;;17.10;9.93;;;8.30;99.90;;;;;;5054487;28;20185;-51
2023/10/21 08:18:29;;;;;;;20.00;9.37;;;8.30;99.90;;;;;;5054369;28;20504;-52
2023/10/21 08:20:55;;;;;;;15.90;9.27;;;8.40;99.90;;;;;;5054641;28;20440;-52
2023/10/21 08:23:20;;;;;;;15.80;9.47;;;8.40;99.90;;;;;;5054108;28;20610;-52
2023/10/21 08:25:46;;;;;;;15.30;9.10;;;8.40;99.90;;;;;;5054273;28;20254;-52
2023/10/21 08:28:12;;;;;;;16.77;9.37;;;8.40;99.90;;;;;;5054211;28;20186;-52
2023/10/21 08:30:37;;;;;;;13.10;8.30;;;8.40;99.90;;;;;;5053959;28;20188;-52
2023/10/21 08:33:07;;;;;;;13.97;8.17;;;8.40;99.90;;;;;;5054199;28;20445;-52
2023/10/21 08:35:33;;;;;;;12.20;7.70;;;8.50;99.90;;;;;;5054243;28;20633;-52
2023/10/21 08:37:59;;;;;;;11.20;8.37;;;8.50;99.90;;;;;;5053609;28;20469;-52
2023/10/21 08:40:25;;;;;;;11.07;7.60;;;8.50;99.90;;;;;;5054062;28;20763;-51
2023/10/21 08:42:51;;;;;;;11.23;7.10;;;8.50;99.90;;;;;;5053827;28;20560;-51
2023/10/21 08:45:19;;;;;;;11.10;7.20;;;8.50;99.90;;;;;;5053942;28;20558;-51
2023/10/21 08:47:45;;;;;;;13.30;8.37;;;8.50;99.90;;;;;;5052652;28;20434;-53
2023/10/21 08:50:13;;;;;;;11.30;7.93;;;8.50;99.90;;;;;;5073177;28;20426;-50
2023/10/21 08:52:40;;;;;;;13.60;7.40;;;8.50;99.90;;;;;;5073758;28;20403;-50
2023/10/21 08:55:06;;;;;;;12.20;7.47;;;8.50;99.90;;;;;;5073403;28;20539;-50
2023/10/21 08:57:36;;;;;;;10.90;6.57;;;8.60;99.90;;;;;;5072866;28;20477;-50
2023/10/21 09:00:04;;;;;;;11.27;7.00;;;8.60;99.90;;;;;;5055859;28;20770;-50
2023/10/21 09:02:30;;;;;;;8.33;5.43;;;8.60;99.90;;;;;;5074074;28;21157;-50
2023/10/21 09:04:56;;;;;;;9.30;6.00;;;8.60;99.90;;;;;;5073731;28;20473;-50
2023/10/21 09:07:22;;;;;;;7.80;5.60;;;8.60;99.90;;;;;;5073989;28;20176;-51
2023/10/21 09:09:48;;;;;;;7.10;5.63;;;8.60;99.90;;;;;;5073829;28;20180;-51
2023/10/21 09:12:13;;;;;;;9.40;5.90;;;8.70;99.90;;;;;;5074031;28;20433;-51
2023/10/21 09:14:52;;;;;;;8.20;5.90;;;8.70;99.90;;;;;;5073553;28;20416;-50
2023/10/21 09:17:19;;;;;;;8.03;5.93;;;8.70;99.90;;;;;;5073723;28;20177;-51
2023/10/21 09:19:48;;;;;;;11.87;5.37;;;8.80;99.90;;;;;;5073588;28;20421;-50
2023/10/21 09:22:22;;;;;;;6.87;5.53;;;8.80;99.90;;;;;;5073693;28;20518;-50
2023/10/21 09:24:47;;;;;;;6.50;5.03;;;8.80;99.90;;;;;;5073145;28;20460;-50
2023/10/21 09:27:16;;;;;;;7.43;5.50;;;8.80;99.90;;;;;;5072945;28;20422;-50
2023/10/21 09:29:41;;;;;;;7.53;5.60;;;8.80;99.90;;;;;;5073343;28;20186;-51
2023/10/21 09:32:07;;;;;;;6.03;5.10;;;8.80;99.90;;;;;;5073467;28;20413;-51
2023/10/21 09:34:33;;;;;;;7.83;5.60;;;8.90;99.90;;;;;;5046315;28;20186;-51
2023/10/21 09:37:04;;;;;;;9.20;5.70;;;8.90;99.90;;;;;;5050303;28;20189;-51
2023/10/21 09:39:36;;;;;;;9.43;5.67;;;9.00;99.90;;;;;;5052230;28;20551;-51
2023/10/21 09:42:03;;;;;;;6.60;5.23;;;9.00;99.90;;;;;;5053356;28;20472;-51
2023/10/21 09:44:29;;;;;;;7.30;5.63;;;9.00;99.90;;;;;;5053190;28;20589;-51
2023/10/21 09:46:56;;;;;;;7.00;5.30;;;9.10;99.90;;;;;;5053715;28;20817;-51
2023/10/21 09:49:29;;;;;;;6.43;4.97;;;9.00;99.90;;;;;;5053667;28;20437;-52
2023/10/21 09:52:07;;;;;;;6.80;5.07;;;9.10;99.90;;;;;;5053554;28;20472;-51
2023/10/21 09:54:52;;;;;;;6.43;5.03;;;9.10;99.90;;;;;;5053227;28;20400;-51
2023/10/21 09:57:19;;;;;;;5.80;4.70;;;9.10;99.90;;;;;;5052917;28;20938;-50
2023/10/21 09:59:46;;;;;;;5.53;4.70;;;9.10;99.90;;;;;;5053072;28;20444;-50
2023/10/21 10:02:12;;;;;;;5.70;5.10;;;9.10;99.90;;;;;;5053142;28;20422;-51
2023/10/21 10:04:39;;;;;;;5.73;4.67;;;9.20;99.90;;;;;;5052930;28;20466;-50
2023/10/21 10:07:09;;;;;;;7.33;5.70;;;9.20;99.90;;;;;;5052790;28;20427;-51
2023/10/21 10:09:40;;;;;;;7.97;5.73;;;9.20;99.90;;;;;;5054926;28;20464;-51
2023/10/21 10:12:25;;;;;;;8.53;6.53;;;9.20;99.90;;;;;;5056922;28;20733;-51
2023/10/21 10:14:53;;;;;;;10.87;6.77;;;9.30;99.90;;;;;;5056499;28;20400;-51
2023/10/21 10:17:47;;;;;;;8.27;6.00;;;9.30;99.90;;;;;;5056273;28;20901;-50
2023/10/21 10:20:27;;;;;;;9.83;7.27;;;9.30;99.90;;;;;;5056377;28;20761;-50
2023/10/21 10:23:07;;;;;;;13.10;8.30;;;9.30;99.90;;;;;;5056471;28;20401;-51
2023/10/21 10:25:35;;;;;;;14.67;9.43;;;9.40;99.90;;;;;;5055437;28;20476;-50
2023/10/21 10:28:10;;;;;;;16.17;10.50;;;9.40;99.90;;;;;;5053590;28;20439;-50
2023/10/21 10:30:49;;;;;;;12.20;9.00;;;9.40;99.90;;;;;;5052878;28;20538;-52
2023/10/21 10:33:28;;;;;;;14.63;9.47;;;9.40;99.90;;;;;;5053406;28;20473;-52
2023/10/21 10:35:55;;;;;;;16.13;10.20;;;9.30;99.90;;;;;;5050609;28;20443;-51
2023/10/21 10:38:31;;;;;;;20.67;10.13;;;9.30;99.90;;;;;;5052928;28;20443;-50
2023/10/21 10:41:06;;;;;;;15.97;10.10;;;9.40;99.90;;;;;;5052635;28;20451;-52
2023/10/21 10:43:32;;;;;;;17.10;10.10;;;9.40;99.90;;;;;;5054220;28;21021;-50
2023/10/21 10:46:00;;;;;;;16.90;11.00;;;9.40;99.90;;;;;;5052410;28;20944;-51
2023/10/21 10:48:26;;;;;;;17.37;11.27;;;9.40;99.90;;;;;;5052810;28;20448;-51
2023/10/21 10:51:00;;;;;;;21.23;12.27;;;9.40;99.90;;;;;;5053449;28;20479;-50
2023/10/21 10:53:27;;;;;;;20.13;12.90;;;9.40;99.90;;;;;;5051473;28;20626;-50
2023/10/21 10:55:56;;;;;;;18.93;12.33;;;9.40;99.90;;;;;;5053593;28;20961;-51
2023/10/21 10:58:26;;;;;;;20.93;12.90;;;9.30;99.90;;;;;;5053066;28;20539;-50
2023/10/21 11:00:52;;;;;;;22.80;14.00;;;9.40;99.90;;;;;;5052489;28;20450;-50
2023/10/21 11:03:23;;;;;;;24.87;14.90;;;9.50;99.90;;;;;;5048705;28;20435;-50
2023/10/21 11:05:49;;;;;;;23.70;14.73;;;9.50;99.90;;;;;;5052441;28;20439;-50
2023/10/21 11:08:15;;;;;;;22.47;13.43;;;9.50;99.90;;;;;;5052383;28;20438;-51
2023/10/21 11:10:41;;;;;;;22.70;14.00;;;9.60;99.90;;;;;;5052823;28;20197;-50
2023/10/21 11:13:07;;;;;;;24.73;15.10;;;9.70;99.90;;;;;;5054405;28;20449;-50
2023/10/21 11:15:54;;;;;;;24.50;15.60;;;9.60;99.90;;;;;;5055587;28;20932;-51
2023/10/21 11:18:20;;;;;;;28.23;16.00;;;9.60;99.90;;;;;;5055615;28;20758;-52
2023/10/21 11:20:50;;;;;;;24.40;15.80;;;9.60;99.90;;;;;;5054844;28;20634;-51
2023/10/21 11:23:18;;;;;;;20.90;14.70;;;9.60;99.90;;;;;;5055405;28;20405;-51
2023/10/21 11:25:56;;;;;;;22.33;15.27;;;9.70;99.90;;;;;;5055033;28;20502;-51
2023/10/21 11:28:24;;;;;;;25.03;15.30;;;9.70;99.90;;;;;;5055527;28;20411;-51
2023/10/21 11:30:50;;;;;;;21.07;14.40;;;9.80;99.90;;;;;;5055121;28;20417;-51
2023/10/21 11:33:16;;;;;;;21.77;14.37;;;9.80;99.90;;;;;;5054923;28;20460;-51
2023/10/21 11:35:46;;;;;;;22.53;14.17;;;9.90;99.90;;;;;;5055347;28;20420;-51
2023/10/21 11:38:13;;;;;;;21.20;13.57;;;9.90;99.90;;;;;;5054922;28;20830;-51
2023/10/21 11:40:39;;;;;;;21.70;14.10;;;10.00;99.90;;;;;;5055283;28;20459;-50
2023/10/21 11:43:11;;;;;;;21.60;12.43;;;10.10;99.90;;;;;;5055055;28;20468;-51
2023/10/21 11:45:38;;;;;;;19.80;13.27;;;10.20;99.90;;;;;;5055048;28;20467;-51
2023/10/21 11:48:10;;;;;;;15.13;11.37;;;10.30;99.90;;;;;;5054873;28;20430;-51
2023/10/21 11:50:43;;;;;;;16.40;11.60;;;10.40;99.90;;;;;;5054676;28;20468;-51
2023/10/21 11:53:10;;;;;;;13.97;10.20;;;10.50;99.90;;;;;;5054973;28;20404;-51
2023/10/21 12:17:07;;;;;;;22.63;14.63;;;10.60;99.90;;;;;;5033077;28;20295;-50
2023/10/21 12:19:51;;;;;;;23.20;14.83;;;10.70;99.90;;;;;;5054633;28;20412;-50
2023/10/21 12:25:13;;;;;;;20.70;14.93;;;10.90;99.90;;;;;;5054214;28;20476;-50
2023/10/21 12:33:19;;;;;;;24.20;15.30;;;11.90;99.90;;;;;;4999855;28;20475;-51
2023/10/21 12:35:54;;;;;;;20.10;13.90;;;12.70;99.90;;;;;;5054324;28;20427;-50
2023/10/21 12:43:38;;;;;;;19.87;15.13;;;12.80;99.90;;;;;;5053631;28;20844;-51
2023/10/21 12:46:16;;;;;;;25.80;14.97;;;12.70;1.00;;;;;;5054029;28;20179;-51
2023/10/21 12:48:42;;;;;;;22.80;15.50;;;12.60;15.70;;;;;;5054060;28;20396;-50
2023/10/21 12:51:09;;;;;;;26.20;17.10;;;12.40;1.00;;;;;;5052777;28;20462;-50
2023/10/21 12:53:35;;;;;;;24.23;16.50;;;12.20;1.00;;;;;;5053769;28;20213;-50
2023/10/21 12:56:01;;;;;;;21.70;15.73;;;12.10;39.00;;;;;;5053736;28;20410;-50
2023/10/21 12:58:26;;;;;;;23.33;16.13;;;12.10;1.00;;;;;;5054190;28;20942;-50
2023/10/21 13:00:52;;;;;;;20.63;15.77;;;12.70;99.90;;;;;;5053676;28;20186;-50
2023/10/21 13:03:18;;;;;;;19.60;14.77;;;12.70;99.90;;;;;;5053464;28;20179;-50
2023/10/21 13:05:46;;;;;;;21.43;14.03;;;13.10;99.90;;;;;;5053784;28;20187;-51
2023/10/21 13:08:11;;;;;;;15.37;11.13;;;13.70;99.90;;;;;;5054073;28;20185;-51
2023/10/21 13:10:38;;;;;;;13.70;10.27;;;14.20;24.40;;;;;;5053377;28;20417;-50
2023/10/21 13:13:06;;;;;;;16.87;9.33;;;14.50;99.90;;;;;;5053538;28;20185;-50
2023/10/21 13:15:31;;;;;;;18.10;10.33;;;14.60;99.90;;;;;;5053271;28;20427;-50